Capitol Logistics 778


RKSI
Incheon International Airport
Seoul, KR
ZMUB
Chinggis Khaan International Airport
Ulan Bator, MN

Activity Log

Date Flight Route Aircraft Duration
No Flights Yet

Route Details

Aircraft Information
Primary: Boeing 767-300BDSF
Backup: Not Available
Route Data
Distance: 1066nm
Sched. Duration: 3h 50m
Avg. Duration: 0h 00m (-350m)
Times Flown: 0
Recm'd Route: NOPIK1Y NOPIK G597 DONVO A326 LADIX B339 UDA
Planned Altitude: 34,000ft
Origin Wx: RKSI 200300Z 04004KT 360V090 3500 BR NSC 18/12 Q1027 BECMG 6000 NSW
Dest. Wx: ZMUB 200300Z 34011MPS 9999 BKN030 M05/M10 Q1012 NOSIG RMK QFE652.3 64 MOP
Notes:

Financial History
Total Freight: 0lbs
Average Load: 0lbs/flt
Fuel Used: 0lbs
Avg. Fuel Used: 0lbs/flt
Fuel Expense: $0
Avg. Fuel Expense: $0
Avg. Fuel Cost: $0/lbs
Total Gross Income: $0
Pilot Pay: $0
Total Expenses: $0
Total Revenue: $0
Average Revenue: $0